Time;durP1;ratioP1;P1;durP2;ratioP2;P2;SDS_P1;SDS_P2;PMS_P1;PMS_P2;Temp;Humidity;BMP_temperature;BMP_pressure;BME280_temperature;BME280_humidity;BME280_pressure;Samples;Min_cycle;Max_cycle;Signal;HPM_P1;HPM_P2
2021/01/28 00:01:08;;;;;;;14.55;9.45;;;1.40;81.20;;;;;;5098092;28;20035;-82
2021/01/28 00:03:33;;;;;;;21.05;12.18;;;1.40;81.40;;;;;;5102653;28;20465;-81
2021/01/28 00:06:01;;;;;;;17.27;10.15;;;1.30;81.50;;;;;;5094169;28;20099;-81
2021/01/28 00:08:26;;;;;;;17.88;12.15;;;1.30;81.70;;;;;;5094268;28;20103;-81
2021/01/28 00:10:53;;;;;;;15.40;10.93;;;1.40;81.80;;;;;;5093842;28;20063;-82
2021/01/28 00:13:18;;;;;;;18.65;10.57;;;1.40;81.90;;;;;;5094267;28;20069;-81
2021/01/28 00:15:44;;;;;;;16.98;10.75;;;1.40;81.90;;;;;;5093053;28;20473;-80
2021/01/28 00:18:12;;;;;;;18.83;12.45;;;1.40;81.90;;;;;;5106099;28;20397;-82
2021/01/28 00:20:40;;;;;;;;;;;1.40;82.00;;;;;;5103236;28;20059;-81
2021/01/28 00:23:07;;;;;;;18.35;10.10;;;1.40;81.70;;;;;;5095211;28;19912;-81
2021/01/28 00:25:33;;;;;;;15.30;10.45;;;1.30;81.80;;;;;;5095332;28;20020;-81
2021/01/28 00:27:59;;;;;;;15.85;10.52;;;1.30;81.90;;;;;;5092757;28;20032;-81
2021/01/28 00:30:31;;;;;;;16.55;10.85;;;1.30;82.10;;;;;;5093874;28;20027;-81
2021/01/28 00:32:57;;;;;;;14.82;10.40;;;1.30;82.30;;;;;;5093779;28;20020;-82
2021/01/28 00:35:32;;;;;;;14.82;10.02;;;1.40;82.40;;;;;;5093725;28;20392;-82
2021/01/28 00:37:59;;;;;;;16.80;10.07;;;1.40;82.30;;;;;;5093854;28;20020;-81
2021/01/28 00:40:28;;;;;;;14.80;9.30;;;1.40;82.10;;;;;;5092176;28;20044;-81
2021/01/28 00:42:55;;;;;;;15.15;9.18;;;1.50;82.00;;;;;;5093793;28;20028;-83
2021/01/28 00:45:24;;;;;;;18.08;10.85;;;1.50;81.80;;;;;;5093268;28;20012;-81
2021/01/28 00:47:50;;;;;;;18.90;11.25;;;1.50;81.80;;;;;;5093374;28;20032;-82
2021/01/28 00:50:19;;;;;;;16.83;10.43;;;1.50;81.90;;;;;;5092052;28;20030;-81
2021/01/28 00:52:44;;;;;;;14.35;9.70;;;1.50;82.00;;;;;;5091780;28;20442;-82
2021/01/28 00:55:13;;;;;;;17.70;9.95;;;1.50;82.00;;;;;;5093202;28;20032;-81
2021/01/28 00:57:39;;;;;;;14.63;9.90;;;1.50;82.10;;;;;;5093286;28;20017;-79
2021/01/28 01:00:13;;;;;;;16.75;10.90;;;1.60;81.90;;;;;;5091372;28;20102;-81
2021/01/28 01:02:42;;;;;;;13.75;9.65;;;1.60;81.70;;;;;;5094219;28;20555;-81
2021/01/28 01:05:08;;;;;;;16.17;10.40;;;1.60;81.60;;;;;;5095592;28;20016;-82
2021/01/28 01:07:34;;;;;;;12.67;9.33;;;1.60;81.60;;;;;;5093770;28;20024;-82
2021/01/28 01:10:00;;;;;;;13.25;9.85;;;1.60;81.60;;;;;;5092116;28;20489;-83
2021/01/28 01:12:29;;;;;;;15.18;9.93;;;1.60;81.80;;;;;;5093805;28;20020;-81
2021/01/28 01:14:55;;;;;;;16.77;10.07;;;1.60;81.80;;;;;;5093302;28;20461;-83
2021/01/28 01:17:21;;;;;;;16.75;10.63;;;1.70;81.70;;;;;;5092988;28;20046;-82
2021/01/28 01:19:46;;;;;;;18.77;10.25;;;1.70;81.50;;;;;;5091567;28;20024;-81
2021/01/28 01:22:12;;;;;;;15.45;10.18;;;1.80;81.50;;;;;;5091912;28;20043;-82
2021/01/28 01:24:38;;;;;;;19.30;10.43;;;1.80;81.40;;;;;;5092797;28;20024;-84
2021/01/28 01:27:04;;;;;;;12.73;9.45;;;1.80;81.20;;;;;;5091385;28;20020;-81
2021/01/28 01:29:30;;;;;;;17.05;10.07;;;1.90;81.10;;;;;;5092567;28;20028;-82
2021/01/28 01:31:56;;;;;;;12.88;9.63;;;2.00;81.00;;;;;;5092761;28;20457;-82
2021/01/28 01:34:22;;;;;;;13.95;10.57;;;2.10;80.90;;;;;;5091481;28;20024;-81
2021/01/28 01:36:48;;;;;;;13.27;10.15;;;2.20;80.70;;;;;;5105010;28;20100;-81
2021/01/28 01:39:14;;;;;;;17.60;11.45;;;2.20;80.30;;;;;;5091410;28;20073;-81
2021/01/28 01:41:40;;;;;;;15.05;8.82;;;2.20;80.00;;;;;;5092886;28;20374;-83
2021/01/28 01:44:06;;;;;;;16.17;10.25;;;2.20;79.90;;;;;;5087924;28;20035;-82
2021/01/28 01:46:32;;;;;;;14.73;9.43;;;2.30;79.70;;;;;;5073626;28;20073;-84
2021/01/28 01:49:04;;;;;;;15.20;9.55;;;2.30;79.70;;;;;;5091336;28;20552;-84
2021/01/28 01:51:38;;;;;;;17.80;10.88;;;2.30;79.80;;;;;;5092998;28;20484;-83
2021/01/28 01:54:06;;;;;;;18.55;10.07;;;2.30;79.80;;;;;;5092873;28;20034;-85
2021/01/28 01:56:48;;;;;;;17.80;10.85;;;2.30;79.60;;;;;;5092771;28;20024;-82
2021/01/28 01:59:27;;;;;;;12.85;8.07;;;2.30;79.60;;;;;;5092395;28;20020;-81
2021/01/28 02:02:08;;;;;;;16.27;10.02;;;2.30;79.30;;;;;;5092533;28;20035;-81
2021/01/28 02:04:35;;;;;;;11.88;7.93;;;2.30;79.40;;;;;;5092502;28;20027;-82
2021/01/28 02:07:17;;;;;;;13.50;9.73;;;2.20;79.10;;;;;;5092856;28;20111;-82
2021/01/28 02:09:43;;;;;;;17.15;9.57;;;2.10;78.90;;;;;;5092536;28;20024;-81
2021/01/28 02:12:09;;;;;;;14.50;9.98;;;2.10;79.30;;;;;;5095976;28;20390;-83
2021/01/28 02:14:36;;;;;;;19.13;11.43;;;2.10;79.70;;;;;;5095368;28;20028;-81
2021/01/28 02:17:07;;;;;;;16.33;11.40;;;2.10;79.70;;;;;;5096439;28;20473;-82
2021/01/28 02:19:42;;;;;;;15.90;10.68;;;2.10;79.70;;;;;;5096476;28;20028;-82
2021/01/28 02:22:08;;;;;;;13.60;10.35;;;2.10;79.80;;;;;;5100255;28;20040;-82
2021/01/28 02:24:53;;;;;;;16.35;10.68;;;2.00;79.40;;;;;;5096446;28;20020;-82
2021/01/28 02:27:18;;;;;;;16.92;13.15;;;2.00;79.80;;;;;;5097041;28;20024;-81
2021/01/28 02:29:46;;;;;;;14.65;10.23;;;2.00;79.90;;;;;;5095963;28;20050;-82
2021/01/28 02:32:12;;;;;;;18.67;10.70;;;2.00;80.00;;;;;;5095942;28;20093;-83
2021/01/28 02:34:40;;;;;;;16.35;11.27;;;2.00;80.00;;;;;;5095990;28;20026;-80
2021/01/28 02:37:33;;;;;;;16.95;11.05;;;2.00;80.10;;;;;;5106025;28;20025;-80
2021/01/28 02:39:58;;;;;;;16.45;12.68;;;2.10;80.10;;;;;;5090693;28;20028;-81
2021/01/28 02:42:31;;;;;;;16.48;10.90;;;2.10;80.10;;;;;;5095987;28;20085;-81
2021/01/28 02:44:58;;;;;;;17.85;11.77;;;2.20;80.10;;;;;;5096924;28;20023;-82
2021/01/28 02:47:24;;;;;;;16.35;11.48;;;2.20;80.10;;;;;;5096910;28;20035;-81
2021/01/28 02:49:50;;;;;;;19.05;11.40;;;2.20;80.20;;;;;;5095878;28;20469;-82
2021/01/28 02:52:17;;;;;;;18.00;11.50;;;2.30;80.30;;;;;;5094809;28;20020;-81
2021/01/28 02:54:48;;;;;;;19.50;11.43;;;2.30;80.00;;;;;;5094473;28;20484;-81
2021/01/28 02:57:15;;;;;;;15.93;10.82;;;2.40;80.00;;;;;;5094324;28;20264;-81
2021/01/28 02:59:41;;;;;;;18.03;12.17;;;2.40;80.50;;;;;;5084199;28;20492;-81
2021/01/28 03:02:12;;;;;;;18.90;13.02;;;2.50;79.80;;;;;;5092426;28;20443;-80
2021/01/28 03:04:38;;;;;;;14.50;10.18;;;2.50;79.80;;;;;;5094241;28;20393;-80
2021/01/28 03:07:06;;;;;;;20.02;11.98;;;2.50;79.70;;;;;;5095702;28;20028;-81
2021/01/28 03:09:32;;;;;;;18.65;12.55;;;2.50;79.50;;;;;;5095202;28;20024;-80
2021/01/28 03:11:59;;;;;;;17.75;12.48;;;2.50;79.40;;;;;;5093724;28;20035;-83
2021/01/28 03:14:25;;;;;;;20.67;12.63;;;2.50;79.40;;;;;;5094119;28;20097;-82
2021/01/28 03:16:50;;;;;;;18.40;12.85;;;2.50;79.40;;;;;;5094301;28;20024;-82
2021/01/28 03:19:20;;;;;;;19.35;12.88;;;2.40;79.40;;;;;;5093617;28;20026;-82
2021/01/28 03:21:46;;;;;;;17.45;12.35;;;2.40;79.40;;;;;;5093995;28;20097;-81
2021/01/28 03:24:12;;;;;;;16.90;12.10;;;2.40;79.70;;;;;;5093358;28;20031;-83
2021/01/28 03:26:38;;;;;;;15.05;12.07;;;2.30;79.80;;;;;;5094317;28;20393;-82
2021/01/28 03:29:06;;;;;;;19.45;13.80;;;2.30;79.90;;;;;;5095028;28;20030;-82
2021/01/28 03:31:33;;;;;;;19.15;13.18;;;2.30;79.90;;;;;;5098381;28;20028;-80
2021/01/28 03:33:59;;;;;;;18.13;12.65;;;2.30;79.80;;;;;;5101637;28;20028;-81
2021/01/28 03:36:27;;;;;;;19.77;12.93;;;2.30;80.00;;;;;;5098979;28;20104;-81
2021/01/28 03:38:53;;;;;;;19.33;13.93;;;2.20;80.20;;;;;;5090107;28;20024;-82
2021/01/28 03:41:20;;;;;;;20.75;14.18;;;2.10;80.30;;;;;;5089957;28;20194;-83
2021/01/28 03:43:46;;;;;;;20.83;12.55;;;2.00;80.80;;;;;;5094362;28;20448;-83
2021/01/28 03:46:11;;;;;;;19.45;13.30;;;1.90;81.40;;;;;;5093141;28;20024;-82
2021/01/28 03:48:38;;;;;;;23.45;15.93;;;1.80;82.00;;;;;;5094472;28;20020;-82
2021/01/28 03:51:05;;;;;;;22.83;14.77;;;1.70;82.40;;;;;;5094791;28;20020;-81
2021/01/28 03:53:31;;;;;;;22.25;14.65;;;1.70;83.00;;;;;;5094628;28;20499;-81
2021/01/28 03:55:57;;;;;;;23.13;15.35;;;1.60;83.30;;;;;;5094760;28;20106;-82
2021/01/28 03:58:23;;;;;;;25.45;15.43;;;1.60;83.90;;;;;;5094307;28;20052;-82
2021/01/28 04:00:49;;;;;;;24.92;16.38;;;1.60;84.20;;;;;;5092890;28;20024;-82
2021/01/28 04:03:15;;;;;;;23.70;16.48;;;1.60;84.40;;;;;;5094278;28;20028;-81
2021/01/28 04:05:41;;;;;;;26.27;15.90;;;1.60;84.70;;;;;;5093913;28;20099;-82
2021/01/28 04:08:06;;;;;;;25.27;16.58;;;1.60;84.90;;;;;;5094084;28;20020;-80
2021/01/28 04:10:35;;;;;;;21.92;16.40;;;1.60;85.70;;;;;;5094056;28;20012;-81
2021/01/28 04:13:01;;;;;;;28.67;15.82;;;1.50;85.40;;;;;;5094184;28;20428;-81
2021/01/28 04:15:27;;;;;;;24.30;17.30;;;1.50;85.80;;;;;;5093873;28;20032;-82
2021/01/28 04:17:54;;;;;;;24.10;16.13;;;1.30;86.10;;;;;;5093767;28;20465;-82
2021/01/28 04:20:23;;;;;;;27.58;17.13;;;1.20;86.80;;;;;;5093641;28;20520;-82
2021/01/28 04:22:49;;;;;;;26.65;17.08;;;1.20;87.20;;;;;;5094005;28;20420;-79
2021/01/28 04:25:17;;;;;;;27.80;17.58;;;1.20;87.50;;;;;;5104249;28;20111;-82
2021/01/28 04:27:42;;;;;;;32.65;19.85;;;1.10;87.60;;;;;;5099310;28;20024;-81
2021/01/28 04:30:11;;;;;;;28.20;18.45;;;1.10;88.10;;;;;;5094593;28;20023;-81
2021/01/28 04:32:37;;;;;;;28.73;18.15;;;1.10;88.50;;;;;;5081730;28;20085;-84
2021/01/28 04:35:05;;;;;;;29.85;18.95;;;1.10;88.70;;;;;;5100277;28;20024;-81
2021/01/28 04:37:31;;;;;;;28.30;18.48;;;1.10;89.10;;;;;;5098007;28;20097;-82
2021/01/28 04:39:57;;;;;;;33.67;20.95;;;1.10;89.20;;;;;;5093924;28;20022;-80
2021/01/28 04:42:49;;;;;;;35.08;22.33;;;1.10;89.40;;;;;;5093883;28;20043;-82
2021/01/28 04:45:20;;;;;;;28.40;18.98;;;1.20;90.00;;;;;;5080212;28;20111;-82
2021/01/28 04:47:54;;;;;;;31.02;19.52;;;1.10;90.00;;;;;;5092930;28;20058;-81
2021/01/28 04:50:35;;;;;;;33.45;22.10;;;1.00;90.10;;;;;;5092886;28;20028;-82
2021/01/28 04:53:10;;;;;;;27.27;18.17;;;0.90;90.30;;;;;;5094574;28;20024;-81
2021/01/28 04:55:42;;;;;;;30.35;20.88;;;0.80;90.50;;;;;;5091683;28;20016;-83
2021/01/28 04:58:09;;;;;;;35.38;21.80;;;0.80;90.70;;;;;;5092049;28;20031;-82
2021/01/28 05:00:35;;;;;;;26.27;17.95;;;0.70;90.90;;;;;;5093053;28;20016;-84
2021/01/28 05:03:20;;;;;;;38.97;21.85;;;0.60;91.40;;;;;;5092787;28;20036;-82
2021/01/28 05:05:49;;;;;;;31.52;21.20;;;0.60;91.50;;;;;;5092681;28;20053;-81
2021/01/28 05:08:15;;;;;;;40.85;26.40;;;0.60;91.60;;;;;;5081281;28;20024;-81
2021/01/28 05:10:53;;;;;;;29.85;21.73;;;0.60;91.70;;;;;;5090979;28;20020;-82
2021/01/28 05:13:39;;;;;;;36.25;22.23;;;0.70;91.80;;;;;;5091123;28;20032;-82
2021/01/28 05:16:30;;;;;;;32.58;21.65;;;0.70;91.70;;;;;;5090251;28;20058;-83
2021/01/28 05:19:00;;;;;;;31.27;21.15;;;0.60;91.80;;;;;;5088610;28;20103;-83
2021/01/28 05:21:30;;;;;;;37.75;20.63;;;0.60;91.90;;;;;;5084880;28;20045;-85
2021/01/28 05:24:03;;;;;;;34.85;22.05;;;0.60;92.10;;;;;;5075254;28;20032;-82
2021/01/28 05:26:47;;;;;;;33.10;20.05;;;0.60;92.30;;;;;;5091485;28;20137;-81
2021/01/28 05:29:27;;;;;;;29.80;21.13;;;0.60;92.40;;;;;;5091070;28;20020;-81
2021/01/28 05:31:56;;;;;;;29.42;19.70;;;0.50;92.40;;;;;;5081683;28;20048;-83
2021/01/28 05:34:34;;;;;;;28.95;18.90;;;0.50;92.40;;;;;;5092653;28;20469;-83
2021/01/28 05:37:04;;;;;;;30.67;19.95;;;0.50;92.50;;;;;;5097488;28;20051;-84
2021/01/28 05:39:39;;;;;;;32.88;19.73;;;0.50;92.50;;;;;;5090356;28;20024;-82
2021/01/28 05:42:13;;;;;;;35.80;21.90;;;0.50;92.60;;;;;;5091095;28;20028;-82
2021/01/28 05:44:42;;;;;;;40.20;22.95;;;0.60;92.50;;;;;;5092601;28;20111;-83
2021/01/28 05:47:11;;;;;;;34.78;21.95;;;0.60;92.60;;;;;;5091999;28;20046;-81
2021/01/28 05:49:40;;;;;;;36.88;23.02;;;0.60;92.60;;;;;;5091687;28;20031;-83
2021/01/28 05:52:29;;;;;;;35.65;21.45;;;0.60;92.70;;;;;;5096051;28;20020;-83
2021/01/28 05:55:11;;;;;;;39.45;22.65;;;0.60;92.80;;;;;;5085109;28;20028;-82
2021/01/28 05:57:42;;;;;;;38.15;24.52;;;0.60;92.80;;;;;;5092620;28;20085;-83
2021/01/28 06:00:42;;;;;;;38.38;25.35;;;0.60;92.80;;;;;;5093542;28;20016;-82
2021/01/28 06:03:08;;;;;;;36.80;20.38;;;0.60;92.80;;;;;;5092710;28;20523;-84
2021/01/28 06:06:05;;;;;;;34.38;24.10;;;0.60;92.80;;;;;;5088537;28;20046;-85
2021/01/28 06:08:56;;;;;;;37.53;22.45;;;0.60;93.00;;;;;;5083404;28;20048;-83
2021/01/28 06:11:22;;;;;;;36.63;24.23;;;0.60;93.10;;;;;;5092985;28;20056;-86
2021/01/28 06:14:00;;;;;;;41.78;25.13;;;0.60;93.10;;;;;;5092036;28;20389;-84
2021/01/28 06:16:49;;;;;;;40.22;24.50;;;0.60;93.10;;;;;;5090759;28;20028;-84
2021/01/28 06:19:47;;;;;;;43.72;24.10;;;0.60;93.40;;;;;;5078885;28;20071;-81
2021/01/28 06:22:16;;;;;;;35.35;21.10;;;0.60;93.30;;;;;;5092100;28;20135;-82
2021/01/28 06:25:20;;;;;;;40.67;26.20;;;0.60;93.20;;;;;;5092291;28;20388;-84
2021/01/28 06:28:14;;;;;;;42.28;22.90;;;0.60;93.40;;;;;;5083643;28;20515;-86
2021/01/28 06:31:10;;;;;;;43.65;24.20;;;0.50;93.40;;;;;;5097554;28;20031;-82
2021/01/28 06:33:55;;;;;;;40.15;23.15;;;0.50;93.40;;;;;;5094719;28;20036;-85
2021/01/28 06:36:39;;;;;;;37.33;22.48;;;0.50;93.50;;;;;;5091363;28;20078;-81
2021/01/28 06:39:09;;;;;;;40.00;20.60;;;0.50;93.60;;;;;;5092034;28;20054;-84
2021/01/28 06:41:45;;;;;;;37.78;22.05;;;0.60;93.70;;;;;;5092589;28;20020;-85
2021/01/28 06:44:17;;;;;;;37.03;17.05;;;0.60;93.70;;;;;;5092724;28;20031;-83
2021/01/28 06:47:05;;;;;;;36.65;18.98;;;0.50;93.70;;;;;;5093473;28;20031;-85
2021/01/28 06:49:40;;;;;;;34.60;19.10;;;0.60;93.70;;;;;;5091528;28;20020;-83
2021/01/28 06:52:39;;;;;;;34.00;19.90;;;0.60;93.80;;;;;;5092013;28;20073;-83
2021/01/28 06:55:26;;;;;;;34.17;18.20;;;0.60;93.90;;;;;;5092133;28;20103;-85
2021/01/28 06:58:00;;;;;;;32.45;19.08;;;0.60;93.80;;;;;;5080382;28;20383;-83
2021/01/28 07:00:50;;;;;;;34.95;18.42;;;0.60;93.80;;;;;;5093180;28;20027;-85
2021/01/28 07:03:40;;;;;;;27.08;16.65;;;0.70;93.90;;;;;;5095520;28;20473;-85
2021/01/28 07:06:41;;;;;;;33.80;20.73;;;0.60;93.80;;;;;;5083513;28;20012;-85
2021/01/28 07:09:21;;;;;;;37.85;20.80;;;0.60;93.90;;;;;;5053554;28;20051;-85
2021/01/28 07:11:56;;;;;;;36.15;20.05;;;0.50;94.00;;;;;;5094692;28;20028;-85
2021/01/28 07:14:23;;;;;;;36.28;20.30;;;0.60;94.10;;;;;;5093801;28;20024;-84
2021/01/28 07:17:10;;;;;;;34.27;18.73;;;0.60;94.10;;;;;;5094208;28;20016;-84
2021/01/28 07:19:42;;;;;;;36.72;22.00;;;0.60;94.20;;;;;;5082860;28;20031;-83
2021/01/28 07:22:29;;;;;;;41.20;25.08;;;0.60;94.30;;;;;;5095640;28;20079;-86
2021/01/28 07:24:56;;;;;;;39.30;22.23;;;0.70;94.40;;;;;;5096337;28;20062;-85
2021/01/28 07:28:02;;;;;;;35.20;21.02;;;0.70;94.40;;;;;;5097162;28;20024;-84
2021/01/28 07:30:46;;;;;;;37.70;23.27;;;0.70;94.30;;;;;;5096514;28;20110;-83
2021/01/28 07:33:24;;;;;;;30.60;18.30;;;0.70;94.30;;;;;;5081949;28;20020;-84
2021/01/28 07:36:03;;;;;;;38.35;22.88;;;0.70;94.40;;;;;;5102806;28;20031;-86
2021/01/28 07:38:32;;;;;;;45.25;24.80;;;0.70;94.50;;;;;;5096591;28;20031;-86
2021/01/28 07:41:09;;;;;;;36.83;20.67;;;0.70;94.60;;;;;;5096589;28;20106;-85
2021/01/28 07:43:40;;;;;;;38.97;21.90;;;0.70;94.60;;;;;;5097576;28;20036;-85
2021/01/28 07:46:16;;;;;;;40.47;22.05;;;0.70;94.70;;;;;;5096810;28;20024;-84
2021/01/28 07:48:44;;;;;;;36.33;22.33;;;0.80;94.80;;;;;;5095997;28;20028;-85
2021/01/28 07:51:31;;;;;;;37.45;21.48;;;0.80;94.70;;;;;;5095714;28;20362;-85
2021/01/28 07:54:07;;;;;;;36.35;21.48;;;0.80;94.60;;;;;;5098039;28;20020;-86
2021/01/28 07:57:29;;;;;;;33.40;21.42;;;0.80;94.60;;;;;;5101018;28;20024;-86
2021/01/28 08:00:01;;;;;;;32.25;22.98;;;0.70;94.70;;;;;;5071376;28;20063;-84
2021/01/28 08:02:30;;;;;;;27.90;16.95;;;0.60;94.80;;;;;;5096223;28;20031;-84
2021/01/28 08:05:05;;;;;;;35.00;21.05;;;0.60;94.90;;;;;;5097402;28;20035;-85
2021/01/28 08:07:38;;;;;;;40.15;20.90;;;0.60;95.20;;;;;;5082447;28;20419;-85
2021/01/28 08:10:25;;;;;;;32.30;20.23;;;0.60;95.20;;;;;;5097906;28;20042;-87
2021/01/28 08:13:14;;;;;;;37.47;20.52;;;0.70;95.30;;;;;;5085874;28;20055;-87
2021/01/28 08:16:14;;;;;;;36.65;20.95;;;0.70;95.20;;;;;;5097029;28;20032;-86
2021/01/28 08:18:42;;;;;;;30.33;19.92;;;0.60;95.30;;;;;;5079772;28;20054;-86
2021/01/28 08:21:09;;;;;;;;;;;0.60;95.30;;;;;;5094743;28;20040;-86
2021/01/28 08:23:38;;;;;;;26.38;17.77;;;0.60;95.20;;;;;;5094952;28;19954;-85
2021/01/28 08:26:08;;;;;;;28.33;18.40;;;0.60;95.40;;;;;;5095028;28;20096;-85
2021/01/28 08:28:41;;;;;;;32.33;19.35;;;0.60;95.50;;;;;;5096063;28;20097;-85
2021/01/28 08:31:31;;;;;;;34.65;21.52;;;0.60;95.40;;;;;;5093640;28;20116;-84
2021/01/28 08:33:59;;;;;;;35.75;21.20;;;0.60;95.50;;;;;;5095925;28;20016;-84
2021/01/28 08:36:44;;;;;;;32.35;19.20;;;0.70;95.50;;;;;;5100801;28;20024;-85
2021/01/28 08:39:13;;;;;;;36.40;23.45;;;0.70;95.30;;;;;;5093801;28;20484;-84
2021/01/28 08:41:44;;;;;;;35.88;21.27;;;0.70;95.20;;;;;;5095123;28;20221;-84
2021/01/28 08:44:15;;;;;;;36.88;20.45;;;0.70;95.20;;;;;;5095328;28;20036;-85
2021/01/28 08:46:46;;;;;;;29.65;17.23;;;0.70;95.30;;;;;;5094755;28;20335;-84
2021/01/28 08:49:20;;;;;;;34.47;18.80;;;0.70;95.30;;;;;;5095680;28;20024;-88
2021/01/28 08:51:59;;;;;;;33.22;19.58;;;0.80;95.50;;;;;;5094583;28;20099;-83
2021/01/28 08:54:32;;;;;;;31.77;20.30;;;0.80;95.20;;;;;;5094406;28;20020;-85
2021/01/28 08:56:59;;;;;;;29.30;19.20;;;0.80;95.10;;;;;;5093148;28;20469;-84
2021/01/28 08:59:30;;;;;;;;;;;0.70;95.30;;;;;;5092618;28;20070;-83
2021/01/28 09:01:57;;;;;;;30.15;18.90;;;0.80;95.30;;;;;;5093142;28;19947;-83
2021/01/28 09:04:30;;;;;;;33.10;19.37;;;0.80;95.30;;;;;;5093415;28;20020;-85
2021/01/28 09:06:56;;;;;;;33.60;20.05;;;0.90;95.20;;;;;;5093285;28;20268;-84
2021/01/28 09:09:30;;;;;;;34.85;20.67;;;0.90;95.30;;;;;;5093528;28;20081;-85
2021/01/28 09:12:22;;;;;;;34.90;20.95;;;1.00;95.10;;;;;;5092638;28;20020;-84
2021/01/28 09:14:48;;;;;;;34.78;18.83;;;1.00;95.10;;;;;;5082287;28;20385;-82
2021/01/28 09:17:26;;;;;;;29.40;20.92;;;1.00;95.00;;;;;;5093022;28;20049;-83
2021/01/28 09:19:59;;;;;;;33.85;19.23;;;1.00;95.20;;;;;;5092717;28;20027;-84
2021/01/28 09:22:37;;;;;;;31.50;19.90;;;1.00;95.20;;;;;;5091943;28;20497;-83
2021/01/28 09:25:18;;;;;;;30.05;18.88;;;1.10;95.20;;;;;;5092441;28;20047;-85
2021/01/28 09:27:58;;;;;;;31.42;17.52;;;1.20;95.20;;;;;;5091269;28;20052;-83
2021/01/28 09:30:30;;;;;;;31.17;20.15;;;1.20;95.00;;;;;;5091390;28;20034;-82
2021/01/28 09:32:56;;;;;;;31.15;20.58;;;1.20;94.90;;;;;;5091120;28;20027;-84
2021/01/28 09:35:27;;;;;;;34.10;20.08;;;1.20;95.00;;;;;;5097244;28;20015;-83
2021/01/28 09:38:12;;;;;;;33.75;19.23;;;1.30;95.00;;;;;;5094581;28;20020;-83
2021/01/28 09:40:41;;;;;;;26.25;18.10;;;1.30;94.70;;;;;;5091750;28;20028;-84
2021/01/28 09:43:33;;;;;;;27.02;18.10;;;1.30;94.70;;;;;;5091410;28;20115;-84
2021/01/28 09:46:08;;;;;;;32.78;19.35;;;1.40;94.90;;;;;;5090991;28;20570;-84
2021/01/28 09:48:34;;;;;;;24.35;16.95;;;1.30;94.80;;;;;;5092161;28;20020;-85
2021/01/28 09:51:03;;;;;;;29.88;18.88;;;1.40;94.90;;;;;;5092512;28;20426;-84
2021/01/28 09:53:29;;;;;;;26.40;17.67;;;1.40;94.80;;;;;;5091890;28;20411;-85
2021/01/28 09:55:55;;;;;;;28.77;17.33;;;1.40;94.80;;;;;;5092857;28;20073;-84
2021/01/28 09:58:22;;;;;;;26.95;16.33;;;1.40;94.80;;;;;;5094582;28;20048;-86
2021/01/28 10:00:48;;;;;;;26.83;18.83;;;1.30;94.80;;;;;;5093184;28;20087;-85
2021/01/28 10:03:14;;;;;;;21.13;15.48;;;1.30;94.80;;;;;;5092646;28;20028;-85
2021/01/28 10:05:40;;;;;;;27.15;16.77;;;1.20;95.00;;;;;;5092392;28;20042;-85
2021/01/28 10:08:06;;;;;;;25.48;16.35;;;1.10;95.00;;;;;;5092154;28;20548;-85
2021/01/28 10:10:34;;;;;;;24.40;17.08;;;1.10;95.40;;;;;;5091341;28;20020;-85
2021/01/28 10:13:17;;;;;;;27.73;17.13;;;1.20;95.50;;;;;;5093525;28;20026;-84
2021/01/28 10:15:43;;;;;;;26.08;17.15;;;1.40;95.50;;;;;;5091732;28;20481;-84
2021/01/28 10:18:09;;;;;;;23.45;16.52;;;1.40;95.20;;;;;;5095332;28;20024;-84
2021/01/28 10:20:36;;;;;;;21.58;16.05;;;1.40;95.00;;;;;;5098792;28;20085;-86
2021/01/28 10:23:04;;;;;;;23.15;16.85;;;1.40;95.10;;;;;;5094939;28;20078;-85
2021/01/28 10:25:30;;;;;;;23.38;16.63;;;1.40;95.30;;;;;;5092046;28;20025;-85
2021/01/28 10:27:56;;;;;;;21.33;15.10;;;1.60;95.20;;;;;;5093916;28;20362;-84
2021/01/28 10:30:23;;;;;;;25.80;16.33;;;1.60;95.10;;;;;;5092140;28;20032;-86
2021/01/28 10:32:50;;;;;;;23.63;16.42;;;1.70;95.10;;;;;;5102081;28;20027;-84
2021/01/28 10:35:26;;;;;;;23.95;15.93;;;1.70;95.00;;;;;;5110983;28;20020;-85
2021/01/28 10:37:53;;;;;;;25.80;15.07;;;1.80;94.90;;;;;;5105459;28;20028;-84
2021/01/28 10:40:19;;;;;;;22.30;17.17;;;1.70;94.80;;;;;;5099165;28;20018;-85
2021/01/28 10:42:46;;;;;;;22.88;15.45;;;1.70;95.10;;;;;;5095818;28;20166;-85
2021/01/28 10:45:19;;;;;;;28.73;16.23;;;1.80;95.10;;;;;;5096632;28;20365;-85
2021/01/28 10:47:45;;;;;;;19.42;14.23;;;1.80;94.90;;;;;;5096485;28;20099;-86
2021/01/28 10:50:11;;;;;;;22.98;15.35;;;1.80;94.80;;;;;;5096431;28;20047;-86
2021/01/28 10:52:37;;;;;;;22.38;14.90;;;1.60;94.90;;;;;;5099598;28;20025;-86
2021/01/28 10:55:05;;;;;;;23.10;15.30;;;1.70;95.10;;;;;;5097260;28;20489;-85
2021/01/28 10:57:31;;;;;;;;;;;1.70;95.10;;;;;;5102201;28;20046;-84
2021/01/28 10:59:57;;;;;;;24.13;16.35;;;1.70;95.10;;;;;;5100304;28;19911;-85
2021/01/28 11:02:23;;;;;;;21.25;15.20;;;1.70;95.10;;;;;;5099718;28;20024;-83
2021/01/28 11:04:49;;;;;;;27.65;14.90;;;1.80;95.20;;;;;;5097225;28;20035;-86
2021/01/28 11:07:15;;;;;;;21.65;15.80;;;1.90;95.20;;;;;;5096736;28;20016;-84
2021/01/28 11:09:42;;;;;;;19.65;12.68;;;2.00;95.10;;;;;;5095259;28;20024;-85
2021/01/28 11:12:09;;;;;;;19.90;15.43;;;2.00;94.70;;;;;;5097495;28;20048;-85
2021/01/28 11:14:35;;;;;;;22.55;16.27;;;1.80;94.80;;;;;;5095774;28;20024;-84
2021/01/28 11:17:01;;;;;;;26.10;16.98;;;1.80;95.00;;;;;;5095721;28;20028;-84
2021/01/28 11:19:27;;;;;;;26.05;15.50;;;1.90;95.10;;;;;;5095996;28;20016;-84
2021/01/28 11:21:53;;;;;;;27.38;16.50;;;1.90;95.10;;;;;;5094353;28;20523;-85
2021/01/28 11:24:19;;;;;;;22.42;14.32;;;2.00;95.10;;;;;;5094188;28;20466;-85
2021/01/28 11:26:45;;;;;;;22.20;15.05;;;2.00;95.10;;;;;;5096484;28;20028;-85
2021/01/28 11:29:11;;;;;;;19.95;15.30;;;2.00;95.10;;;;;;5096267;28;20394;-85
2021/01/28 11:31:36;;;;;;;21.92;14.30;;;2.10;95.30;;;;;;5093773;28;20027;-84
2021/01/28 11:34:03;;;;;;;25.77;16.30;;;2.10;95.00;;;;;;5095118;28;20110;-85
2021/01/28 11:36:30;;;;;;;18.73;14.63;;;2.10;94.90;;;;;;5102355;28;20020;-84
2021/01/28 11:38:59;;;;;;;22.42;14.98;;;2.10;95.10;;;;;;5095190;28;20055;-84
2021/01/28 11:41:26;;;;;;;19.10;13.25;;;2.20;95.00;;;;;;5093605;28;20095;-85
2021/01/28 11:43:51;;;;;;;25.83;16.77;;;2.20;94.80;;;;;;5092874;28;20144;-85
2021/01/28 11:46:17;;;;;;;25.40;15.10;;;2.20;94.70;;;;;;5092860;28;20111;-85
2021/01/28 11:48:43;;;;;;;23.08;13.65;;;2.20;94.70;;;;;;5094983;28;20115;-85
2021/01/28 11:51:09;;;;;;;24.50;15.05;;;2.20;94.60;;;;;;5094586;28;20387;-85
2021/01/28 11:53:35;;;;;;;20.63;14.15;;;2.20;94.70;;;;;;5097636;28;20103;-85
2021/01/28 11:56:03;;;;;;;23.10;15.55;;;2.30;94.70;;;;;;5093771;28;20028;-85
2021/01/28 11:58:29;;;;;;;19.77;12.95;;;2.30;94.60;;;;;;5094612;28;20032;-84
2021/01/28 12:00:55;;;;;;;19.13;13.77;;;2.30;94.40;;;;;;5094470;28;20442;-84
2021/01/28 12:03:20;;;;;;;22.92;14.27;;;2.10;94.20;;;;;;5093380;28;20028;-83
2021/01/28 12:05:46;;;;;;;21.42;14.25;;;2.10;94.50;;;;;;5092890;28;20012;-84
2021/01/28 12:08:12;;;;;;;19.92;13.43;;;2.20;94.80;;;;;;5081455;28;20055;-86
2021/01/28 12:10:38;;;;;;;20.73;12.90;;;2.30;94.80;;;;;;5092300;28;20088;-85
2021/01/28 12:13:04;;;;;;;20.10;13.23;;;2.20;94.30;;;;;;5094778;28;20377;-84
2021/01/28 12:15:30;;;;;;;20.65;13.30;;;2.10;94.40;;;;;;5094390;28;20499;-84
2021/01/28 12:17:56;;;;;;;22.20;13.82;;;2.10;94.60;;;;;;5092737;28;20024;-84
2021/01/28 12:20:25;;;;;;;19.67;12.57;;;2.20;94.70;;;;;;5094057;28;20119;-85
2021/01/28 12:22:57;;;;;;;21.05;12.98;;;2.20;94.70;;;;;;5092905;28;20039;-85
2021/01/28 12:25:23;;;;;;;17.75;13.23;;;2.20;94.70;;;;;;5093133;28;20030;-85
2021/01/28 12:27:49;;;;;;;16.80;11.90;;;2.30;94.60;;;;;;5094320;28;20020;-86
2021/01/28 12:30:19;;;;;;;20.48;12.55;;;2.20;94.50;;;;;;5093123;28;20028;-84
2021/01/28 12:32:45;;;;;;;17.20;12.50;;;2.20;94.70;;;;;;5098374;28;20046;-86
2021/01/28 12:35:11;;;;;;;19.27;14.38;;;2.20;94.70;;;;;;5104164;28;20024;-85
2021/01/28 12:37:37;;;;;;;19.00;12.73;;;2.20;94.80;;;;;;5102597;28;20490;-84
2021/01/28 12:40:08;;;;;;;20.92;13.63;;;2.20;94.80;;;;;;5096355;28;20433;-84
2021/01/28 12:42:34;;;;;;;19.65;12.55;;;2.30;95.00;;;;;;5094250;28;20039;-84
2021/01/28 12:45:01;;;;;;;19.00;12.63;;;2.30;94.70;;;;;;5094083;28;20013;-85
2021/01/28 12:47:27;;;;;;;19.93;13.57;;;2.30;94.60;;;;;;5093905;28;20023;-85
2021/01/28 12:49:56;;;;;;;19.35;13.52;;;2.30;94.70;;;;;;5094151;28;20427;-86
2021/01/28 12:52:23;;;;;;;18.70;12.10;;;2.40;94.70;;;;;;5092310;28;20023;-85
2021/01/28 12:54:49;;;;;;;22.17;14.68;;;2.30;94.50;;;;;;5093299;28;20035;-85
2021/01/28 12:57:15;;;;;;;21.27;14.23;;;2.30;94.60;;;;;;5091730;28;20131;-86
2021/01/28 12:59:41;;;;;;;21.58;14.95;;;2.20;94.70;;;;;;5093219;28;20103;-85